createdAt,value
2022-08-10T00:00:47.970Z,100102.73
2022-08-10T00:03:18.503Z,100093.13
2022-08-10T00:05:52.656Z,100093.13
2022-08-10T00:08:23.845Z,100096.45
2022-08-10T00:10:58.273Z,100096.45
2022-08-10T00:13:29.330Z,100086.31
2022-08-10T00:15:59.699Z,100086.31
2022-08-10T00:18:34.996Z,100084.28
2022-08-10T00:21:03.398Z,100088.94
2022-08-10T00:23:35.702Z,100081.87
2022-08-10T00:26:06.555Z,100089.89
2022-08-10T00:28:36.922Z,100089.89
2022-08-10T00:31:07.439Z,100095.33
2022-08-10T00:33:37.795Z,100089.41
2022-08-10T00:36:08.391Z,100089.41
2022-08-10T00:38:38.819Z,100094.19
2022-08-10T00:41:09.309Z,100087.28
2022-08-10T00:43:39.738Z,100085.66
2022-08-10T00:46:10.145Z,100082.40
2022-08-10T00:48:40.921Z,100092.77
2022-08-10T00:51:12.477Z,100092.77
2022-08-10T00:53:42.817Z,100092.58
2022-08-10T00:57:09.904Z,100094.78
2022-08-10T00:58:46.747Z,100097.59
2022-08-10T01:02:11.131Z,100097.59
2022-08-10T01:04:36.283Z,100098.42
2022-08-10T01:06:27.129Z,100095.98
2022-08-10T01:09:36.283Z,100095.98
2022-08-10T01:12:38.188Z,100094.98
2022-08-10T01:15:18.837Z,100094.98
2022-08-10T01:17:52.358Z,100095.39
2022-08-10T01:20:30.210Z,100101.26
2022-08-10T01:23:14.600Z,100101.26
2022-08-10T01:26:30.553Z,100096.75
2022-08-10T01:29:09.124Z,100096.75
2022-08-10T01:31:42.847Z,100100.34
2022-08-10T01:34:16.040Z,100090.66
2022-08-10T01:36:50.911Z,100090.97
2022-08-10T01:39:24.534Z,100090.97
2022-08-10T01:41:57.800Z,100080.01
2022-08-10T01:47:32.014Z,100089.55
2022-08-10T01:53:12.592Z,100083.25
2022-08-10T01:55:44.390Z,100083.25
2022-08-10T01:58:18.073Z,100096.95
2022-08-10T02:00:51.153Z,100086.81
2022-08-10T02:03:24.389Z,100084.93
2022-08-10T02:05:57.318Z,100084.93
2022-08-10T02:08:29.216Z,100085.37
2022-08-10T02:11:01.209Z,100083.34
2022-08-10T02:13:33.364Z,100085.38
2022-08-10T02:16:05.566Z,100080.87
2022-08-10T02:18:56.639Z,100075.88
2022-08-10T02:21:28.790Z,100075.88
2022-08-10T02:24:01.958Z,100078.06
2022-08-10T02:26:33.504Z,100083.14
2022-08-10T02:29:04.698Z,100080.51
2022-08-10T02:31:36.549Z,100080.02
2022-08-10T02:34:09.766Z,100080.02
2022-08-10T02:36:44.719Z,100081.30
2022-08-10T02:39:17.537Z,100081.30
2022-08-10T02:45:15.497Z,100078.38
2022-08-10T02:45:21.689Z,100076.40
2022-08-10T02:47:24.476Z,100075.13
2022-08-10T02:49:57.615Z,100074.49
2022-08-10T02:52:32.472Z,100078.06
2022-08-10T02:55:17.656Z,100078.06
2022-08-10T02:58:16.832Z,100083.72
2022-08-10T03:00:13.514Z,100083.02
2022-08-10T03:02:46.224Z,100086.81
2022-08-10T03:05:17.962Z,100085.08
2022-08-10T03:07:53.948Z,100084.22
2022-08-10T03:10:31.793Z,100094.54
2022-08-10T03:13:05.330Z,100088.66
2022-08-10T03:15:38.890Z,100085.50
2022-08-10T03:18:11.567Z,100085.50
2022-08-10T03:20:43.502Z,100094.17
2022-08-10T03:23:16.248Z,100101.37
2022-08-10T03:25:52.780Z,100104.39
2022-08-10T03:28:26.486Z,100101.22
2022-08-10T03:31:00.641Z,100105.28
2022-08-10T03:33:36.847Z,100112.42
2022-08-10T03:36:42.493Z,100114.06
2022-08-10T03:38:40.211Z,100105.95
2022-08-10T03:41:15.821Z,100105.95
2022-08-10T03:43:50.600Z,100091.30
2022-08-10T03:46:23.994Z,100094.98
2022-08-10T03:48:56.964Z,100101.05
2022-08-10T03:51:27.868Z,100096.09
2022-08-10T03:54:03.070Z,100099.72
2022-08-10T03:56:33.004Z,100099.72
2022-08-10T03:59:04.311Z,100109.02
2022-08-10T04:02:43.144Z,100109.02
2022-08-10T04:04:12.377Z,100108.05
2022-08-10T04:06:40.265Z,100106.41
2022-08-10T04:09:10.916Z,100100.50
2022-08-10T04:11:41.335Z,100107.78
2022-08-10T04:14:38.038Z,100111.44
2022-08-10T04:16:46.841Z,100111.28
2022-08-10T04:19:19.495Z,100106.89
2022-08-10T04:22:19.478Z,100111.80
2022-08-10T04:24:52.904Z,100114.01
2022-08-10T04:27:23.404Z,100114.01
2022-08-10T04:29:54.862Z,100102.16
2022-08-10T04:32:26.862Z,100115.95
2022-08-10T04:34:59.423Z,100106.93
2022-08-10T04:37:31.630Z,100106.93
2022-08-10T04:40:29.546Z,100108.37
2022-08-10T04:43:01.405Z,100108.37
2022-08-10T04:45:47.282Z,100109.20
2022-08-10T04:48:02.984Z,100100.31
2022-08-10T04:50:32.164Z,100109.84
2022-08-10T04:53:02.851Z,100109.84
2022-08-10T04:55:33.553Z,100109.81
2022-08-10T04:58:04.007Z,100109.81
2022-08-10T05:00:34.421Z,100112.30
2022-08-10T05:03:04.644Z,100112.30
2022-08-10T05:05:35.502Z,100109.21
2022-08-10T05:08:06.797Z,100108.59
2022-08-10T05:10:37.221Z,100103.08
2022-08-10T05:13:08.593Z,100103.08
2022-08-10T05:15:39.824Z,100107.59
2022-08-10T05:18:11.431Z,100105.53
2022-08-10T05:20:41.964Z,100105.53
2022-08-10T05:23:12.337Z,100101.89
2022-08-10T05:25:43.373Z,100104.06
2022-08-10T05:28:13.760Z,100104.06
2022-08-10T05:30:44.157Z,100097.59
2022-08-10T05:33:14.492Z,100102.78
2022-08-10T05:35:56.965Z,100102.78
2022-08-10T05:38:18.209Z,100092.92
2022-08-10T05:40:49.766Z,100090.11
2022-08-10T05:43:22.032Z,100090.11
2022-08-10T05:46:19.451Z,100095.51
2022-08-10T05:48:57.588Z,100095.51
2022-08-10T05:50:57.803Z,100096.28
2022-08-10T05:54:03.022Z,100093.88
2022-08-10T05:56:01.629Z,100094.75
2022-08-10T05:58:32.340Z,100088.91
2022-08-10T06:01:06.005Z,100083.94
2022-08-10T06:03:43.513Z,100086.98
2022-08-10T06:06:34.379Z,100087.77
2022-08-10T06:09:06.327Z,100087.77
2022-08-10T06:12:24.384Z,100087.58
2022-08-10T06:14:16.045Z,100083.12
2022-08-10T06:16:45.750Z,100085.92
2022-08-10T06:19:16.899Z,100096.16
2022-08-10T06:22:00.690Z,100096.16
2022-08-10T06:24:19.928Z,100090.30
2022-08-10T06:26:51.879Z,100090.30
2022-08-10T06:29:24.331Z,100094.06
2022-08-10T06:31:56.032Z,100095.63
2022-08-10T06:34:32.035Z,100097.55
2022-08-10T06:37:23.188Z,100099.97
2022-08-10T06:39:54.202Z,100099.97
2022-08-10T06:42:33.508Z,100099.33
2022-08-10T06:45:33.485Z,100094.75
2022-08-10T06:48:08.009Z,100102.44
2022-08-10T06:50:56.099Z,100098.47
2022-08-10T06:53:20.745Z,100107.88
2022-08-10T06:55:56.407Z,100113.00
2022-08-10T06:58:28.536Z,100099.75
2022-08-10T07:01:00.741Z,100099.75
2022-08-10T07:03:34.038Z,100102.14
2022-08-10T07:06:06.826Z,100101.27
2022-08-10T07:08:39.962Z,100096.91
2022-08-10T07:11:12.197Z,100096.91
2022-08-10T07:14:14.410Z,100100.30
2022-08-10T07:16:56.050Z,100096.54
2022-08-10T07:19:27.683Z,100096.54
2022-08-10T07:21:59.858Z,100098.32
2022-08-10T07:24:31.783Z,100098.32
2022-08-10T07:27:04.399Z,100098.68
2022-08-10T07:29:54.505Z,100101.01
2022-08-10T07:32:09.974Z,100097.86
2022-08-10T07:34:41.879Z,100089.26
2022-08-10T07:37:13.407Z,100089.26
2022-08-10T07:40:01.880Z,100087.22
2022-08-10T07:42:23.372Z,100094.87
2022-08-10T07:44:53.969Z,100094.87
2022-08-10T07:47:53.207Z,100096.28
2022-08-10T07:50:11.746Z,100098.66
2022-08-10T07:52:44.800Z,100083.52
2022-08-10T07:55:17.543Z,100083.30
2022-08-10T07:57:51.396Z,100082.64
2022-08-10T08:00:23.053Z,100080.06
2022-08-10T08:02:56.180Z,100080.06
2022-08-10T08:05:58.148Z,100076.02
2022-08-10T08:08:02.992Z,100065.70
2022-08-10T08:10:34.636Z,100065.70
2022-08-10T08:13:06.607Z,100070.27
2022-08-10T08:16:21.275Z,100058.31
2022-08-10T08:18:11.872Z,100058.31
2022-08-10T08:20:45.531Z,100066.78
2022-08-10T08:24:09.319Z,100051.16
2022-08-10T08:25:59.815Z,100051.16
2022-08-10T08:28:30.730Z,100052.20
2022-08-10T08:31:02.376Z,100053.98
2022-08-10T08:33:42.108Z,100049.75
2022-08-10T08:36:13.025Z,100052.88
2022-08-10T08:38:45.639Z,100061.07
2022-08-10T08:44:48.082Z,100044.81
2022-08-10T08:48:04.237Z,100045.95
2022-08-10T08:50:48.311Z,100045.95
2022-08-10T08:54:02.170Z,100047.04
2022-08-10T08:56:43.259Z,100052.18
2022-08-10T08:59:17.002Z,100049.23
2022-08-10T09:02:02.421Z,100049.23
2022-08-10T09:04:44.665Z,100053.84
2022-08-10T09:08:00.341Z,100056.87
2022-08-10T09:10:21.310Z,100048.42
2022-08-10T09:18:41.674Z,100049.81
2022-08-10T09:21:17.602Z,100062.09
2022-08-10T09:24:05.267Z,100055.34
2022-08-10T09:26:37.623Z,100055.34
2022-08-10T09:29:13.207Z,100057.62
2022-08-10T09:32:55.019Z,100055.03
2022-08-10T09:36:27.004Z,100061.52
2022-08-10T09:37:10.324Z,100059.09
2022-08-10T09:40:12.540Z,100061.44
2022-08-10T09:43:23.634Z,100059.73
2022-08-10T09:49:17.360Z,100061.86
2022-08-10T09:52:12.622Z,100061.33
2022-08-10T09:57:56.867Z,100059.74
2022-08-10T10:00:29.434Z,100053.63
2022-08-10T10:03:25.849Z,100063.83
2022-08-10T10:06:07.762Z,100059.93
2022-08-10T10:09:10.034Z,100056.52
2022-08-10T10:11:56.721Z,100055.76
2022-08-10T10:14:55.753Z,100055.76
2022-08-10T10:20:25.974Z,100062.44
2022-08-10T10:23:23.421Z,100051.13
2022-08-10T10:26:13.046Z,100047.76
2022-08-10T10:31:43.285Z,100053.30
2022-08-10T10:34:34.325Z,100042.12
2022-08-10T10:37:06.695Z,100042.12
2022-08-10T10:39:40.010Z,100040.80
2022-08-10T10:42:46.920Z,100040.80
2022-08-10T10:45:22.689Z,100051.77
2022-08-10T10:48:10.851Z,100051.77
2022-08-10T10:54:11.727Z,100046.17
2022-08-10T10:56:51.229Z,100050.34
2022-08-10T10:59:55.714Z,100048.92
2022-08-10T11:02:51.759Z,100038.20
2022-08-10T11:05:36.008Z,100044.72
2022-08-10T11:08:14.550Z,100048.62
2022-08-10T11:10:56.453Z,100042.86
2022-08-10T11:14:27.302Z,100044.63
2022-08-10T11:16:34.866Z,100031.95
2022-08-10T11:22:07.351Z,100037.97
2022-08-10T11:24:56.465Z,100037.97
2022-08-10T11:30:42.291Z,100023.88
2022-08-10T11:34:04.128Z,100023.88
2022-08-10T11:36:13.281Z,100023.87
2022-08-10T11:39:14.287Z,100024.47
2022-08-10T11:42:09.401Z,100024.47
2022-08-10T11:44:52.035Z,100022.72
2022-08-10T11:47:33.773Z,100014.73
2022-08-10T11:50:22.169Z,100018.69
2022-08-10T11:53:19.353Z,100000.91
2022-08-10T11:55:58.483Z,100000.91
2022-08-10T11:58:31.725Z,100009.52
2022-08-10T12:01:05.546Z,100009.64
2022-08-10T12:03:39.289Z,99997.29
2022-08-10T12:06:33.669Z,99996.81
2022-08-10T12:10:07.080Z,100001.67
2022-08-10T12:11:29.653Z,99982.70
2022-08-10T12:14:21.756Z,99982.70
2022-08-10T12:16:52.794Z,99986.33
2022-08-10T12:20:02.834Z,99986.33
2022-08-10T12:22:37.934Z,99983.75
2022-08-10T12:25:55.033Z,99983.23
2022-08-10T12:27:55.056Z,99987.24
2022-08-10T12:30:29.360Z,99987.95
2022-08-10T12:33:11.435Z,99999.45
2022-08-10T12:36:17.869Z,99996.79
2022-08-10T12:38:58.755Z,100003.06
2022-08-10T12:41:45.496Z,100013.14
2022-08-10T12:44:42.763Z,100013.14
2022-08-10T12:47:16.361Z,100014.92
2022-08-10T12:50:29.358Z,100007.33
2022-08-10T12:52:59.499Z,100007.33
2022-08-10T12:55:32.553Z,100010.64
2022-08-10T12:58:05.426Z,100009.59
2022-08-10T13:01:05.783Z,100007.67
2022-08-10T13:03:13.151Z,100003.39
2022-08-10T13:06:02.605Z,99997.59
2022-08-10T13:08:27.185Z,99993.80
2022-08-10T13:10:59.863Z,99993.80
2022-08-10T13:13:35.816Z,99985.37
2022-08-10T13:16:07.431Z,99993.59
2022-08-10T13:18:41.060Z,99981.22
2022-08-10T13:21:19.960Z,99976.84
2022-08-10T13:24:12.959Z,99982.97
2022-08-10T13:27:26.464Z,99987.70
2022-08-10T13:29:51.699Z,99987.70
2022-08-10T13:32:25.090Z,99979.73
2022-08-10T13:37:57.686Z,99978.31
2022-08-10T13:40:29.139Z,99976.27
2022-08-10T13:43:02.077Z,99973.34
2022-08-10T13:45:33.294Z,99971.52
2022-08-10T13:48:12.034Z,99957.39
2022-08-10T13:50:47.035Z,99964.21
2022-08-10T13:53:19.210Z,99964.21
2022-08-10T13:55:54.351Z,99956.40
2022-08-10T13:58:33.853Z,99948.17
2022-08-10T14:01:24.845Z,99954.97
2022-08-10T14:03:56.105Z,99954.97
2022-08-10T14:06:29.605Z,99960.81
2022-08-10T14:09:26.850Z,99951.27
2022-08-10T14:11:59.981Z,99951.27
2022-08-10T14:14:32.240Z,99959.15
2022-08-10T14:26:46.945Z,99938.20
2022-08-10T14:29:22.241Z,99930.97
2022-08-10T14:32:00.547Z,99930.97
2022-08-10T14:36:14.991Z,99938.30
2022-08-10T14:37:03.330Z,99938.30
2022-08-10T14:39:42.222Z,99926.88
2022-08-10T14:45:04.429Z,99919.20
2022-08-10T14:47:59.521Z,99930.03
2022-08-10T14:50:32.352Z,99930.03
2022-08-10T14:53:29.256Z,99939.42
2022-08-10T14:56:21.751Z,99937.05
2022-08-10T14:58:59.049Z,99937.05
2022-08-10T15:02:00.720Z,99934.09
2022-08-10T15:04:07.038Z,99939.34
2022-08-10T15:06:55.109Z,99939.34
2022-08-10T15:12:25.043Z,99935.17
2022-08-10T15:14:54.369Z,99935.17
2022-08-10T15:17:27.771Z,99935.13
2022-08-10T15:20:13.520Z,99930.88
2022-08-10T15:22:38.692Z,99925.33
2022-08-10T15:25:17.711Z,99926.07
2022-08-10T15:27:55.078Z,99928.66
2022-08-10T15:30:19.152Z,99941.39
2022-08-10T15:32:54.836Z,99941.39
2022-08-10T15:35:28.838Z,99943.56
2022-08-10T15:38:23.237Z,99943.32
2022-08-10T15:40:58.222Z,99945.69
2022-08-10T15:43:36.887Z,99941.65
2022-08-10T15:49:14.709Z,99954.17
2022-08-10T15:52:08.784Z,99961.19
2022-08-10T15:54:42.705Z,99959.27
2022-08-10T15:57:17.604Z,99959.27
2022-08-10T15:59:55.243Z,99955.51
2022-08-10T16:02:28.529Z,99961.57
2022-08-10T16:05:07.579Z,99961.57
2022-08-10T16:07:46.021Z,99948.19
2022-08-10T16:10:28.703Z,99954.05
2022-08-10T16:13:59.759Z,99961.51
2022-08-10T16:15:41.139Z,99956.48
2022-08-10T16:18:14.376Z,99961.14
2022-08-10T16:20:54.901Z,99964.36
2022-08-10T16:23:28.841Z,99964.36
2022-08-10T16:26:14.726Z,99973.66
2022-08-10T16:28:46.692Z,99973.66
2022-08-10T16:31:19.894Z,99968.82
2022-08-10T16:33:54.949Z,99974.40
2022-08-10T16:36:34.259Z,99974.40
2022-08-10T16:39:15.781Z,99975.64
2022-08-10T16:42:04.122Z,99975.64
2022-08-10T16:44:41.341Z,99969.01
2022-08-10T16:47:13.293Z,99974.60
2022-08-10T16:49:48.653Z,99974.60
2022-08-10T16:52:22.072Z,99968.11
2022-08-10T16:54:55.286Z,99968.11
2022-08-10T16:57:28.570Z,99967.35
2022-08-10T16:59:59.717Z,99963.69
2022-08-10T17:02:31.618Z,99965.80
2022-08-10T17:11:16.752Z,99965.12
2022-08-10T17:13:48.844Z,99966.42
2022-08-10T17:16:19.179Z,99960.23
2022-08-10T17:18:51.662Z,99962.26
2022-08-10T17:21:24.711Z,99961.49
2022-08-10T17:28:04.947Z,99969.11
2022-08-10T17:30:04.257Z,99966.36
2022-08-10T17:36:32.505Z,99974.41
2022-08-10T17:39:04.621Z,99966.27
2022-08-10T17:41:37.863Z,99966.98
2022-08-10T17:44:10.163Z,99966.98
2022-08-10T17:46:43.084Z,99966.41
2022-08-10T17:49:16.314Z,99966.41
2022-08-10T17:51:52.382Z,99964.98
2022-08-10T17:54:25.720Z,99965.88
2022-08-10T17:57:03.388Z,99965.67
2022-08-10T17:59:38.157Z,99968.68
2022-08-10T18:05:19.946Z,99971.34
2022-08-10T18:07:53.526Z,99977.80
2022-08-10T18:10:24.321Z,99967.35
2022-08-10T18:12:59.694Z,99967.35
2022-08-10T18:15:30.921Z,99961.09
2022-08-10T18:18:03.403Z,99958.20
2022-08-10T18:20:59.062Z,99958.20
2022-08-10T18:26:37.919Z,99953.47
2022-08-10T18:29:23.572Z,99948.11
2022-08-10T18:32:02.759Z,99948.11
2022-08-10T18:34:34.813Z,99952.97
2022-08-10T18:37:08.850Z,99949.00
2022-08-10T18:39:53.413Z,99947.52
2022-08-10T18:42:55.862Z,99947.52
2022-08-10T18:45:44.928Z,99943.26
2022-08-10T18:48:41.005Z,99943.26
2022-08-10T18:51:35.834Z,99951.30
2022-08-10T19:00:16.975Z,99952.72
2022-08-10T19:12:30.045Z,99938.84
2022-08-10T19:15:08.122Z,99938.84
2022-08-10T19:18:02.892Z,99933.70
2022-08-10T19:20:53.272Z,99940.02
2022-08-10T19:23:59.709Z,99940.02
2022-08-10T19:26:48.223Z,99940.85
2022-08-10T19:30:09.857Z,99939.33
2022-08-10T19:32:34.104Z,99929.88
2022-08-10T19:35:25.091Z,99935.20
2022-08-10T19:38:01.617Z,99935.20
2022-08-10T19:53:10.233Z,99929.38
2022-08-10T19:56:24.675Z,99929.05
2022-08-10T19:58:43.745Z,99929.05
2022-08-10T20:01:15.902Z,99918.56
2022-08-10T20:03:54.975Z,99918.56
2022-08-10T20:06:40.365Z,99913.73
2022-08-10T20:09:34.345Z,99914.59
2022-08-10T20:12:14.109Z,99914.59
2022-08-10T20:15:04.477Z,99912.84
2022-08-10T20:17:51.436Z,99910.59
2022-08-10T20:23:20.737Z,99907.85
2022-08-10T20:26:02.922Z,99897.14
2022-08-10T20:28:45.844Z,99897.14
2022-08-10T20:31:21.662Z,99895.02
2022-08-10T20:34:00.221Z,99888.11
2022-08-10T20:36:33.621Z,99884.08
2022-08-10T20:39:07.298Z,99884.08
2022-08-10T20:41:46.695Z,99885.52
2022-08-10T20:44:55.227Z,99885.52
2022-08-10T20:47:54.126Z,99880.72
2022-08-10T20:50:28.353Z,99880.72
2022-08-10T20:53:01.659Z,99887.20
2022-08-10T20:55:54.344Z,99875.24
2022-08-10T20:58:44.521Z,99877.72
2022-08-10T21:01:17.557Z,99877.72
2022-08-10T21:04:13.514Z,99872.66
2022-08-10T21:07:28.201Z,99866.17
2022-08-10T21:10:08.573Z,99866.17
2022-08-10T21:12:41.874Z,99872.49
2022-08-10T21:15:42.050Z,99872.75
2022-08-10T21:18:22.853Z,99866.88
2022-08-10T21:21:18.228Z,99864.89
2022-08-10T21:23:57.038Z,99862.02
2022-08-10T21:26:31.513Z,99868.09
2022-08-10T21:32:35.423Z,99858.20
2022-08-10T21:35:36.233Z,99847.50
2022-08-10T21:38:26.436Z,99847.50
2022-08-10T21:41:18.853Z,99848.31
2022-08-10T21:43:49.332Z,99842.27
2022-08-10T21:46:58.872Z,99841.66
2022-08-10T21:49:38.906Z,99835.59
2022-08-10T21:52:34.196Z,99833.60
2022-08-10T21:55:13.416Z,99839.45
2022-08-10T21:58:01.927Z,99839.45
2022-08-10T22:00:35.288Z,99832.20
2022-08-10T22:03:06.771Z,99823.91
2022-08-10T22:05:39.548Z,99821.28
2022-08-10T22:08:15.537Z,99815.84
2022-08-10T22:10:48.815Z,99815.84
2022-08-10T22:13:21.133Z,99808.39
2022-08-10T22:18:34.469Z,99796.88
2022-08-10T22:21:27.948Z,99795.25
2022-08-10T22:27:47.399Z,99788.19
2022-08-10T22:30:03.031Z,99794.26
2022-08-10T22:31:25.897Z,99804.75
2022-08-10T22:32:36.519Z,99795.86
2022-08-10T22:35:30.193Z,99784.36
2022-08-10T22:41:31.454Z,99783.15
2022-08-10T22:44:02.889Z,99775.29
2022-08-10T22:46:34.642Z,99775.29
2022-08-10T22:49:05.840Z,99768.84
2022-08-10T22:52:00.396Z,99767.23
2022-08-10T22:55:00.513Z,99768.01
2022-08-10T22:57:31.303Z,99768.01
2022-08-10T23:00:13.285Z,99764.19
2022-08-10T23:03:04.313Z,99757.94
2022-08-10T23:05:37.571Z,99747.03
2022-08-10T23:08:30.608Z,99745.62
2022-08-10T23:10:59.534Z,99745.62
2022-08-10T23:13:36.247Z,99732.71
2022-08-10T23:16:40.404Z,99732.71
2022-08-10T23:19:40.148Z,99738.34
2022-08-10T23:22:13.043Z,99738.34
2022-08-10T23:25:06.654Z,99731.66
2022-08-10T23:27:41.925Z,99725.63
2022-08-10T23:30:16.988Z,99725.63
2022-08-10T23:32:50.103Z,99731.00
2022-08-10T23:36:29.877Z,99731.00
2022-08-10T23:37:56.758Z,99725.32
2022-08-10T23:40:28.338Z,99722.91
2022-08-10T23:42:59.711Z,99718.05
2022-08-10T23:45:53.593Z,99718.05
2022-08-10T23:48:06.785Z,99714.02
2022-08-10T23:50:38.385Z,99714.02
2022-08-10T23:53:13.335Z,99707.14
2022-08-10T23:55:49.197Z,99716.38
2022-08-10T23:58:33.434Z,99711.70
